Time;durP1;ratioP1;P1;durP2;ratioP2;P2;SDS_P1;SDS_P2;PMS_P1;PMS_P2;Temp;Humidity;BMP_temperature;BMP_pressure;BME280_temperature;BME280_humidity;BME280_pressure;Samples;Min_cycle;Max_cycle;Signal;HPM_P1;HPM_P2
2022/03/29 00:02:16;;;;;;;25.83;16.90;;;7.20;99.90;;;;;;4971249;28;20051;-76
2022/03/29 00:04:42;;;;;;;24.30;17.25;;;7.10;99.90;;;;;;4925399;28;216377;-75
2022/03/29 00:07:09;;;;;;;24.27;16.92;;;7.10;99.90;;;;;;4986322;28;20065;-75
2022/03/29 00:09:36;;;;;;;24.27;16.48;;;7.10;99.90;;;;;;4952813;28;147311;-75
2022/03/29 00:12:02;;;;;;;24.17;16.10;;;7.10;99.90;;;;;;4975908;28;20405;-75
2022/03/29 00:14:28;;;;;;;25.95;17.25;;;7.10;99.90;;;;;;4942767;28;262010;-75
2022/03/29 00:16:54;;;;;;;29.58;17.58;;;7.20;99.90;;;;;;4990070;28;20061;-75
2022/03/29 00:19:20;;;;;;;25.35;16.27;;;7.20;99.90;;;;;;4960602;28;271570;-74
2022/03/29 00:21:46;;;;;;;26.48;17.77;;;7.20;99.90;;;;;;4942943;28;20419;-74
2022/03/29 00:24:13;;;;;;;25.55;17.73;;;7.30;99.90;;;;;;4973985;28;20619;-74
2022/03/29 00:26:39;;;;;;;23.52;16.00;;;7.20;99.90;;;;;;4951577;28;20042;-75
2022/03/29 00:29:05;;;;;;;26.08;16.52;;;7.30;99.90;;;;;;4963554;28;258259;-75
2022/03/29 00:31:31;;;;;;;29.00;18.58;;;7.20;99.90;;;;;;4946250;28;20042;-75
2022/03/29 00:33:57;;;;;;;27.63;18.63;;;7.30;99.90;;;;;;4967652;28;254503;-76
2022/03/29 00:36:23;;;;;;;27.95;17.75;;;7.30;99.90;;;;;;4946513;28;20446;-75
2022/03/29 00:38:50;;;;;;;25.65;17.55;;;7.30;99.90;;;;;;4968829;28;265470;-74
2022/03/29 00:41:16;;;;;;;25.13;17.25;;;7.30;99.90;;;;;;4988773;28;20427;-76
2022/03/29 00:43:42;;;;;;;30.10;19.60;;;7.30;99.90;;;;;;4999897;28;20057;-75
2022/03/29 00:46:08;;;;;;;28.55;18.73;;;7.40;99.90;;;;;;4948587;28;260958;-75
2022/03/29 00:48:35;;;;;;;30.00;20.42;;;7.30;99.90;;;;;;4963822;28;20423;-76
2022/03/29 00:51:01;;;;;;;29.35;18.55;;;7.30;99.90;;;;;;4953453;28;253735;-76
2022/03/29 00:53:28;;;;;;;28.67;19.20;;;7.20;99.90;;;;;;4983732;28;20515;-76
2022/03/29 00:55:55;;;;;;;30.73;20.45;;;7.30;99.90;;;;;;4951614;28;248480;-76
2022/03/29 00:58:21;;;;;;;28.25;19.58;;;7.20;99.90;;;;;;4976358;28;20427;-76
2022/03/29 01:00:48;;;;;;;31.83;21.20;;;7.20;99.90;;;;;;4941754;28;199819;-76
2022/03/29 01:03:15;;;;;;;31.70;21.02;;;7.30;99.90;;;;;;4979543;28;20069;-76
2022/03/29 01:05:41;;;;;;;30.05;19.85;;;7.20;99.90;;;;;;4922762;28;259097;-75
2022/03/29 01:08:08;;;;;;;31.70;19.63;;;7.20;99.90;;;;;;4981385;28;20407;-75
2022/03/29 01:10:34;;;;;;;27.17;18.33;;;7.20;99.90;;;;;;4899215;28;106883;-75
2022/03/29 01:13:01;;;;;;;31.67;20.05;;;7.20;99.90;;;;;;4951275;28;20089;-75
2022/03/29 01:15:30;;;;;;;28.55;19.08;;;7.30;99.90;;;;;;4936225;28;270915;-75
2022/03/29 01:17:56;;;;;;;30.25;20.02;;;7.30;99.90;;;;;;4943790;28;20050;-75
2022/03/29 01:20:27;;;;;;;26.77;17.67;;;7.30;99.90;;;;;;4926552;28;105704;-75
2022/03/29 01:22:55;;;;;;;35.33;20.98;;;7.30;99.90;;;;;;4969906;28;20419;-75
2022/03/29 01:25:34;;;;;;;30.38;20.25;;;7.30;99.90;;;;;;4943108;28;253236;-76
2022/03/29 01:28:03;;;;;;;31.10;19.27;;;7.20;99.90;;;;;;4981925;28;20053;-75
2022/03/29 01:30:30;;;;;;;32.92;19.88;;;7.20;99.90;;;;;;4939156;28;254188;-75
2022/03/29 01:32:58;;;;;;;28.05;19.20;;;7.30;99.90;;;;;;4977157;28;20054;-75
2022/03/29 01:35:25;;;;;;;30.67;19.50;;;7.30;99.90;;;;;;4935652;28;104402;-75
2022/03/29 01:37:54;;;;;;;29.45;19.92;;;7.30;99.90;;;;;;4980836;28;20538;-75
2022/03/29 01:40:23;;;;;;;31.80;19.63;;;7.30;99.90;;;;;;4931511;28;220665;-75
2022/03/29 01:42:55;;;;;;;30.05;19.65;;;7.30;99.90;;;;;;4990376;28;20050;-75
2022/03/29 01:45:27;;;;;;;29.33;18.13;;;7.30;99.90;;;;;;4930810;28;242541;-75
2022/03/29 01:47:53;;;;;;;32.78;20.50;;;7.30;99.90;;;;;;4963656;28;20066;-75
2022/03/29 01:50:20;;;;;;;31.20;19.92;;;7.30;99.90;;;;;;4926592;28;235004;-75
2022/03/29 01:52:47;;;;;;;30.05;19.48;;;7.20;99.90;;;;;;4975629;28;20480;-75
2022/03/29 01:55:16;;;;;;;32.38;20.15;;;7.30;99.90;;;;;;4939281;28;77476;-75
2022/03/29 01:57:43;;;;;;;31.48;20.77;;;7.20;99.90;;;;;;4961045;28;20408;-76
2022/03/29 02:02:56;;;;;;;30.20;19.35;;;7.30;99.90;;;;;;4955170;28;20062;-75
2022/03/29 02:05:23;;;;;;;30.88;20.63;;;7.30;99.90;;;;;;4912558;28;233396;-74
2022/03/29 02:07:52;;;;;;;32.88;21.05;;;7.30;99.90;;;;;;4980328;28;20069;-75
2022/03/29 02:10:21;;;;;;;36.22;21.40;;;7.30;99.90;;;;;;4932397;28;161740;-75
2022/03/29 02:12:48;;;;;;;33.00;20.95;;;7.20;99.90;;;;;;4959457;28;20069;-75
2022/03/29 02:15:15;;;;;;;30.88;19.30;;;7.20;99.90;;;;;;4927886;28;157139;-75
2022/03/29 02:17:44;;;;;;;29.58;19.30;;;7.10;99.90;;;;;;4952414;28;20058;-75
2022/03/29 02:20:13;;;;;;;32.03;20.05;;;7.20;99.90;;;;;;4939612;28;85711;-75
2022/03/29 02:22:39;;;;;;;31.35;20.35;;;7.20;99.90;;;;;;4965219;28;20512;-75
2022/03/29 02:25:06;;;;;;;34.22;21.20;;;7.20;99.90;;;;;;4937353;28;29990;-75
2022/03/29 02:27:32;;;;;;;34.00;20.83;;;7.20;99.90;;;;;;4980276;28;20411;-76
2022/03/29 02:29:59;;;;;;;33.25;21.40;;;7.20;99.90;;;;;;4942131;28;70516;-75
2022/03/29 02:32:25;;;;;;;32.33;21.20;;;7.20;99.90;;;;;;4971121;28;20058;-75
2022/03/29 02:34:51;;;;;;;33.55;20.67;;;7.10;99.90;;;;;;4948758;28;67444;-76
2022/03/29 02:37:17;;;;;;;33.55;21.20;;;7.00;99.90;;;;;;4996112;28;20528;-75
2022/03/29 02:39:43;;;;;;;35.25;21.30;;;7.10;99.90;;;;;;4936623;28;134415;-76
2022/03/29 02:42:09;;;;;;;31.90;21.08;;;7.00;99.90;;;;;;4979685;28;20038;-75
2022/03/29 02:44:36;;;;;;;31.48;20.80;;;7.00;99.90;;;;;;4930895;28;163785;-76
2022/03/29 02:47:02;;;;;;;30.08;20.48;;;7.10;99.90;;;;;;4985761;28;20043;-76
2022/03/29 02:49:28;;;;;;;32.38;20.83;;;7.10;99.90;;;;;;4938148;28;120302;-76
2022/03/29 02:51:54;;;;;;;34.33;21.92;;;7.10;99.90;;;;;;4978434;28;20065;-75
2022/03/29 02:54:20;;;;;;;34.70;21.00;;;7.10;99.90;;;;;;4951236;28;241235;-74
2022/03/29 02:56:46;;;;;;;36.15;21.13;;;7.10;99.90;;;;;;4934463;28;20046;-75
2022/03/29 02:59:14;;;;;;;33.38;20.73;;;7.10;99.90;;;;;;4963805;28;259297;-76
2022/03/29 03:01:40;;;;;;;34.05;21.15;;;7.10;99.90;;;;;;4955404;28;20500;-77
2022/03/29 03:04:07;;;;;;;32.63;20.48;;;7.10;99.90;;;;;;4949808;28;267546;-76
2022/03/29 03:06:34;;;;;;;34.13;20.92;;;7.10;99.90;;;;;;4937398;28;20565;-75
2022/03/29 03:09:01;;;;;;;33.95;20.85;;;7.10;99.90;;;;;;4967895;28;259683;-76
2022/03/29 03:11:27;;;;;;;31.55;20.15;;;7.10;99.90;;;;;;4951235;28;20054;-76
2022/03/29 03:13:53;;;;;;;35.67;20.58;;;7.10;99.90;;;;;;4965730;28;249092;-74
2022/03/29 03:16:19;;;;;;;29.38;19.75;;;7.20;99.90;;;;;;4952910;28;20050;-76
2022/03/29 03:18:45;;;;;;;35.38;20.38;;;7.10;99.90;;;;;;4976263;28;20054;-76
2022/03/29 03:21:12;;;;;;;33.03;20.65;;;7.20;99.90;;;;;;4930865;28;44021;-75
2022/03/29 03:23:38;;;;;;;30.30;19.90;;;7.20;99.90;;;;;;4977171;28;20556;-75
2022/03/29 03:26:04;;;;;;;31.90;20.15;;;7.10;99.90;;;;;;4928556;28;102465;-75
2022/03/29 03:28:30;;;;;;;35.67;20.95;;;7.20;99.90;;;;;;4977627;28;20061;-75
2022/03/29 03:30:56;;;;;;;34.33;22.08;;;7.20;99.90;;;;;;4937100;28;272641;-75
2022/03/29 03:33:22;;;;;;;34.42;20.30;;;7.10;99.90;;;;;;4976734;28;20055;-75
2022/03/29 03:35:48;;;;;;;36.15;19.92;;;7.10;99.90;;;;;;4945256;28;185077;-75
2022/03/29 03:38:15;;;;;;;32.88;20.60;;;7.10;99.90;;;;;;4982398;28;20042;-75
2022/03/29 03:40:43;;;;;;;36.53;20.58;;;7.10;99.90;;;;;;4929890;28;119785;-75
2022/03/29 03:43:09;;;;;;;33.03;21.15;;;7.10;99.90;;;;;;4970988;28;20058;-75
2022/03/29 03:45:36;;;;;;;36.75;19.92;;;7.10;99.90;;;;;;4938742;28;260608;-76
2022/03/29 03:48:03;;;;;;;36.20;20.27;;;7.10;99.90;;;;;;4973942;28;20055;-75
2022/03/29 03:50:30;;;;;;;36.80;21.48;;;7.10;99.90;;;;;;4929362;28;134382;-76
2022/03/29 03:52:56;;;;;;;32.15;21.27;;;7.10;99.90;;;;;;4953912;28;20057;-76
2022/03/29 03:55:23;;;;;;;36.05;21.33;;;7.10;99.90;;;;;;4924734;28;234881;-76
2022/03/29 03:57:49;;;;;;;36.15;22.35;;;7.10;99.90;;;;;;4959404;28;20055;-76
2022/03/29 04:00:16;;;;;;;35.45;21.63;;;7.10;99.90;;;;;;4940499;28;22347;-75
2022/03/29 04:02:43;;;;;;;35.45;21.40;;;7.10;99.90;;;;;;4986245;28;20494;-75
2022/03/29 04:05:13;;;;;;;34.65;21.63;;;7.10;99.90;;;;;;4915382;28;213230;-75
2022/03/29 04:07:40;;;;;;;40.70;22.73;;;7.10;99.90;;;;;;4970626;28;20373;-75
2022/03/29 04:10:08;;;;;;;41.90;22.52;;;7.10;99.90;;;;;;4932333;28;40254;-75
2022/03/29 04:12:35;;;;;;;37.67;22.23;;;7.10;99.90;;;;;;4959708;28;20069;-75
2022/03/29 04:15:01;;;;;;;34.28;20.20;;;7.10;99.90;;;;;;4951721;28;132684;-75
2022/03/29 04:17:27;;;;;;;32.95;21.45;;;7.10;99.90;;;;;;4980726;28;20066;-75
2022/03/29 04:19:54;;;;;;;37.20;22.25;;;7.10;99.90;;;;;;4947074;28;56108;-75
2022/03/29 04:22:21;;;;;;;39.25;21.75;;;7.10;99.90;;;;;;4978956;28;20058;-75
2022/03/29 04:24:47;;;;;;;35.33;22.30;;;7.10;99.90;;;;;;4941187;28;35095;-76
2022/03/29 04:27:14;;;;;;;38.38;22.92;;;7.10;99.90;;;;;;4983980;28;20053;-76
2022/03/29 04:29:40;;;;;;;35.40;22.27;;;7.00;99.90;;;;;;4938239;28;35324;-77
2022/03/29 04:32:06;;;;;;;40.15;21.13;;;7.00;99.90;;;;;;4975672;28;20062;-75
2022/03/29 04:34:33;;;;;;;35.95;22.88;;;7.00;99.90;;;;;;4946019;28;20080;-76
2022/03/29 04:36:59;;;;;;;40.97;22.08;;;7.00;99.90;;;;;;4970730;28;20055;-76
2022/03/29 04:39:26;;;;;;;38.53;22.05;;;7.10;99.90;;;;;;4945543;28;196007;-75
2022/03/29 04:41:53;;;;;;;36.63;22.55;;;7.00;99.90;;;;;;4981448;28;20054;-76
2022/03/29 04:44:19;;;;;;;42.72;21.67;;;7.10;99.90;;;;;;4974277;28;104824;-77
2022/03/29 04:46:45;;;;;;;39.80;22.27;;;7.00;99.90;;;;;;4975934;28;20050;-76
2022/03/29 04:49:12;;;;;;;43.88;22.77;;;7.10;99.90;;;;;;4966212;28;280100;-75
2022/03/29 04:51:38;;;;;;;35.75;21.73;;;7.00;99.90;;;;;;4926463;28;20050;-74
2022/03/29 04:54:04;;;;;;;36.92;21.90;;;7.00;99.90;;;;;;4951355;28;263108;-75
2022/03/29 04:56:30;;;;;;;39.53;22.30;;;7.00;99.90;;;;;;4942410;28;20050;-75
2022/03/29 04:58:56;;;;;;;33.57;21.90;;;7.00;99.90;;;;;;4947832;28;263925;-75
2022/03/29 05:01:23;;;;;;;34.58;21.70;;;7.00;99.90;;;;;;4974487;28;20053;-75
2022/03/29 05:03:49;;;;;;;41.60;23.63;;;7.00;99.90;;;;;;4968353;28;252767;-76
2022/03/29 05:06:15;;;;;;;36.45;21.55;;;7.00;99.90;;;;;;4926792;28;155348;-76
2022/03/29 05:08:41;;;;;;;39.90;22.35;;;6.90;99.90;;;;;;4961247;28;20086;-75
2022/03/29 05:11:07;;;;;;;40.92;22.10;;;6.90;99.90;;;;;;4943816;28;39112;-76
2022/03/29 05:13:33;;;;;;;32.15;21.98;;;6.90;99.90;;;;;;4964086;28;20055;-76
2022/03/29 05:15:59;;;;;;;44.20;22.35;;;6.90;99.90;;;;;;4927903;28;232828;-76
2022/03/29 05:18:26;;;;;;;35.60;20.90;;;6.90;99.90;;;;;;4993926;28;20061;-75
2022/03/29 05:20:52;;;;;;;33.97;20.75;;;6.90;99.90;;;;;;4931170;28;20213;-75
2022/03/29 05:23:19;;;;;;;36.90;21.90;;;7.00;99.90;;;;;;4982176;28;20533;-76
2022/03/29 05:25:45;;;;;;;34.10;21.52;;;7.00;99.90;;;;;;4953469;28;271162;-76
2022/03/29 05:28:12;;;;;;;39.30;21.40;;;7.00;99.90;;;;;;4979245;28;20047;-76
2022/03/29 05:30:38;;;;;;;34.70;20.77;;;7.00;99.90;;;;;;4944409;28;240945;-76
2022/03/29 05:33:04;;;;;;;35.25;21.00;;;7.00;99.90;;;;;;4968251;28;20078;-75
2022/03/29 05:35:32;;;;;;;37.15;20.67;;;7.00;99.90;;;;;;4945125;28;42527;-75
2022/03/29 05:38:00;;;;;;;37.72;21.10;;;7.00;99.90;;;;;;4963349;28;20146;-75
2022/03/29 05:40:28;;;;;;;35.78;21.58;;;7.00;99.90;;;;;;4935283;28;273416;-76
2022/03/29 05:42:54;;;;;;;35.97;22.65;;;7.10;99.90;;;;;;4977292;28;20055;-75
2022/03/29 05:45:21;;;;;;;32.67;20.20;;;7.10;99.90;;;;;;4937235;28;279495;-75
2022/03/29 05:50:32;;;;;;;33.13;20.85;;;7.10;99.90;;;;;;4957007;28;72446;-75
2022/03/29 05:52:59;;;;;;;32.83;20.73;;;7.10;99.90;;;;;;4961523;28;20416;-76
2022/03/29 05:55:26;;;;;;;36.70;22.48;;;7.10;99.90;;;;;;4933186;28;182054;-76
2022/03/29 05:57:52;;;;;;;38.80;22.23;;;7.20;99.90;;;;;;4978997;28;20057;-76
2022/03/29 06:00:23;;;;;;;34.50;21.85;;;7.20;99.90;;;;;;4934351;28;235094;-75
2022/03/29 06:02:51;;;;;;;38.55;21.88;;;7.20;99.90;;;;;;4982472;28;20073;-74
2022/03/29 06:05:17;;;;;;;33.40;20.92;;;7.20;99.90;;;;;;4926019;28;251359;-75
2022/03/29 06:07:44;;;;;;;36.53;22.08;;;7.20;99.90;;;;;;4974824;28;20419;-73
2022/03/29 06:10:11;;;;;;;44.30;23.20;;;7.20;99.90;;;;;;4954812;28;152299;-74
2022/03/29 06:12:37;;;;;;;37.47;21.70;;;7.20;99.90;;;;;;4982774;28;20058;-75
2022/03/29 06:15:11;;;;;;;39.67;22.58;;;7.20;99.90;;;;;;4940706;28;237412;-75
2022/03/29 06:17:38;;;;;;;41.50;22.20;;;7.30;99.90;;;;;;4972395;28;20066;-76
2022/03/29 06:20:06;;;;;;;40.88;23.42;;;7.30;99.90;;;;;;4936281;28;124951;-74
2022/03/29 06:22:38;;;;;;;40.45;22.70;;;7.30;99.90;;;;;;4981515;28;20684;-74
2022/03/29 06:25:05;;;;;;;38.25;23.52;;;7.30;99.90;;;;;;4943601;28;260740;-74
2022/03/29 06:27:31;;;;;;;42.05;23.25;;;7.30;99.90;;;;;;4973718;28;20054;-75
2022/03/29 06:29:57;;;;;;;35.22;21.48;;;7.30;99.90;;;;;;4944285;28;54541;-75
2022/03/29 06:32:23;;;;;;;35.70;21.75;;;7.20;99.90;;;;;;4979877;28;20057;-75
2022/03/29 06:34:50;;;;;;;36.65;22.80;;;7.30;99.90;;;;;;4938226;28;231303;-75
2022/03/29 06:37:16;;;;;;;39.90;23.13;;;7.40;99.90;;;;;;4982478;28;20503;-75
2022/03/29 06:39:42;;;;;;;36.10;21.42;;;7.40;99.90;;;;;;4942905;28;65797;-74
2022/03/29 06:42:09;;;;;;;36.00;20.75;;;7.40;99.90;;;;;;4999984;28;20049;-74
2022/03/29 06:44:35;;;;;;;41.72;22.05;;;7.40;99.90;;;;;;4924976;28;250191;-75
2022/03/29 06:47:02;;;;;;;39.47;21.98;;;7.50;99.90;;;;;;4967035;28;20058;-74
2022/03/29 06:49:29;;;;;;;35.25;20.98;;;7.50;99.90;;;;;;4926656;28;255762;-75
2022/03/29 06:51:55;;;;;;;36.30;20.70;;;7.60;99.90;;;;;;4986169;28;20062;-75
2022/03/29 06:54:21;;;;;;;48.13;23.42;;;7.60;99.90;;;;;;4941574;28;63340;-75
2022/03/29 06:56:48;;;;;;;41.25;22.63;;;7.70;99.90;;;;;;4980156;28;20358;-74
2022/03/29 06:59:14;;;;;;;41.38;21.38;;;7.70;99.90;;;;;;4991245;28;20038;-75
2022/03/29 07:01:40;;;;;;;38.03;21.83;;;7.70;99.90;;;;;;4942347;28;20446;-75
2022/03/29 07:04:08;;;;;;;33.40;21.47;;;7.70;99.90;;;;;;4949347;28;242978;-74
2022/03/29 07:06:35;;;;;;;34.92;19.60;;;7.80;99.90;;;;;;4927479;28;20542;-74
2022/03/29 07:11:46;;;;;;;33.55;20.88;;;7.90;99.90;;;;;;4947256;28;20050;-74
2022/03/29 07:14:13;;;;;;;49.65;21.58;;;7.90;99.90;;;;;;4970123;28;256622;-74
2022/03/29 07:16:41;;;;;;;38.25;22.77;;;8.00;99.90;;;;;;4951627;28;20045;-75
2022/03/29 07:19:10;;;;;;;43.97;22.17;;;7.90;99.90;;;;;;4964732;28;256443;-74
2022/03/29 07:21:39;;;;;;;37.50;21.67;;;7.90;99.90;;;;;;4956747;28;20545;-74
2022/03/29 07:24:06;;;;;;;38.53;21.50;;;8.00;99.90;;;;;;4964730;28;259730;-75
2022/03/29 07:26:34;;;;;;;39.45;22.33;;;8.00;99.90;;;;;;4961937;28;20161;-75
2022/03/29 07:29:00;;;;;;;35.90;22.60;;;8.00;99.90;;;;;;4969163;28;263205;-75
2022/03/29 07:31:27;;;;;;;39.13;21.70;;;8.10;99.90;;;;;;4947575;28;20046;-74
2022/03/29 07:33:53;;;;;;;36.23;21.53;;;8.00;99.90;;;;;;4946229;28;253907;-74
2022/03/29 07:36:19;;;;;;;44.72;23.52;;;8.00;99.90;;;;;;4943126;28;20317;-75
2022/03/29 07:38:45;;;;;;;37.08;22.35;;;8.00;99.90;;;;;;4965367;28;20054;-74
2022/03/29 07:41:11;;;;;;;41.33;22.92;;;8.10;99.90;;;;;;4917676;28;176856;-75
2022/03/29 07:43:38;;;;;;;42.22;23.42;;;8.10;99.90;;;;;;4994818;28;20369;-75
2022/03/29 07:46:04;;;;;;;38.70;22.83;;;8.10;99.90;;;;;;4928923;28;152694;-74
2022/03/29 07:48:30;;;;;;;40.75;23.27;;;8.10;99.90;;;;;;4980414;28;20174;-74
2022/03/29 07:50:56;;;;;;;38.92;23.08;;;8.10;99.90;;;;;;4945922;28;147845;-74
2022/03/29 07:53:25;;;;;;;39.33;22.55;;;8.20;99.90;;;;;;4987278;28;20085;-74
2022/03/29 07:55:52;;;;;;;41.80;22.65;;;8.10;99.90;;;;;;4954580;28;257847;-75
2022/03/29 07:58:19;;;;;;;38.25;22.35;;;8.10;99.90;;;;;;4985433;28;20057;-74
2022/03/29 08:00:49;;;;;;;39.15;22.23;;;8.10;99.90;;;;;;4933869;28;126322;-75
2022/03/29 08:03:17;;;;;;;41.58;23.60;;;8.20;99.90;;;;;;4977534;28;20062;-76
2022/03/29 08:05:44;;;;;;;44.47;23.90;;;8.20;99.90;;;;;;4914215;28;194054;-75
2022/03/29 08:08:13;;;;;;;37.05;22.48;;;8.20;99.90;;;;;;4990794;28;20138;-74
2022/03/29 08:10:40;;;;;;;35.58;22.05;;;8.20;99.90;;;;;;4929451;28;263721;-74
2022/03/29 08:13:07;;;;;;;43.72;23.60;;;8.30;99.90;;;;;;4964317;28;20067;-74
2022/03/29 08:15:38;;;;;;;45.40;23.88;;;8.30;99.90;;;;;;4959933;28;75475;-74
2022/03/29 08:18:06;;;;;;;44.08;24.13;;;8.30;99.90;;;;;;4964101;28;20499;-75
2022/03/29 08:20:32;;;;;;;39.38;22.63;;;8.40;99.90;;;;;;4963415;28;20167;-74
2022/03/29 08:23:00;;;;;;;40.50;22.33;;;8.50;99.90;;;;;;4984917;28;20050;-74
2022/03/29 08:25:29;;;;;;;43.63;22.88;;;8.50;99.90;;;;;;4944358;28;152142;-74
2022/03/29 08:27:56;;;;;;;41.50;22.80;;;8.60;99.90;;;;;;4983180;28;20527;-74
2022/03/29 08:30:24;;;;;;;38.10;23.67;;;8.60;99.90;;;;;;4943490;28;130313;-74
2022/03/29 08:32:51;;;;;;;43.03;23.15;;;8.70;99.90;;;;;;4989325;28;20047;-74
2022/03/29 08:35:17;;;;;;;38.67;22.80;;;8.80;99.90;;;;;;4934374;28;259972;-75
2022/03/29 08:37:46;;;;;;;45.67;21.98;;;8.90;99.90;;;;;;4981950;28;20149;-74
2022/03/29 08:40:19;;;;;;;58.50;23.38;;;9.00;99.90;;;;;;4939299;28;255417;-74
2022/03/29 08:42:49;;;;;;;47.80;22.67;;;9.10;99.90;;;;;;4970606;28;20077;-74
2022/03/29 08:45:16;;;;;;;44.90;23.08;;;9.20;99.90;;;;;;4949684;28;206609;-75
2022/03/29 08:47:45;;;;;;;44.03;21.75;;;9.30;99.90;;;;;;4984424;28;20050;-75
2022/03/29 08:50:14;;;;;;;43.47;22.98;;;9.40;99.90;;;;;;4935813;28;207493;-75
2022/03/29 08:52:40;;;;;;;47.65;22.98;;;9.60;99.90;;;;;;4984181;28;20065;-75
2022/03/29 08:55:10;;;;;;;44.97;22.23;;;9.70;99.90;;;;;;4948661;28;256990;-75
2022/03/29 08:57:38;;;;;;;45.55;22.63;;;9.80;99.90;;;;;;4982089;28;20038;-75
2022/03/29 09:00:06;;;;;;;45.38;22.20;;;9.90;99.90;;;;;;4941234;28;125659;-75
2022/03/29 09:02:34;;;;;;;37.22;20.70;;;10.00;99.90;;;;;;4983489;28;20054;-75
2022/03/29 09:05:13;;;;;;;39.33;21.65;;;10.00;99.90;;;;;;4926840;28;138986;-75
2022/03/29 09:07:49;;;;;;;41.67;20.90;;;10.10;99.90;;;;;;4968782;28;20049;-75
2022/03/29 09:10:15;;;;;;;36.03;19.40;;;10.20;99.90;;;;;;4936487;28;51867;-74
2022/03/29 09:12:41;;;;;;;34.75;20.55;;;10.20;99.90;;;;;;4967947;28;20409;-74
2022/03/29 09:15:09;;;;;;;40.38;20.20;;;10.30;99.90;;;;;;4936349;28;252721;-74
2022/03/29 09:17:45;;;;;;;37.65;20.77;;;10.50;99.90;;;;;;4966468;28;20057;-75
2022/03/29 09:20:14;;;;;;;36.72;20.05;;;10.90;99.90;;;;;;4928513;28;185907;-75
2022/03/29 09:22:47;;;;;;;34.05;19.67;;;11.00;99.90;;;;;;4950709;28;20050;-74
2022/03/29 09:25:22;;;;;;;34.28;19.10;;;11.10;99.90;;;;;;4923661;28;139701;-74
2022/03/29 09:27:55;;;;;;;33.75;18.58;;;11.10;99.90;;;;;;4996723;28;20051;-74
2022/03/29 09:30:23;;;;;;;40.55;18.40;;;11.00;99.90;;;;;;4927449;28;217451;-74
2022/03/29 09:33:05;;;;;;;33.47;18.45;;;10.80;99.90;;;;;;4962902;28;20047;-74
2022/03/29 09:35:50;;;;;;;33.28;18.80;;;10.60;99.90;;;;;;4935936;28;74326;-74
2022/03/29 09:38:30;;;;;;;36.85;19.15;;;10.50;99.90;;;;;;4969568;28;20050;-74
2022/03/29 09:40:57;;;;;;;33.45;18.85;;;10.50;99.90;;;;;;4903810;28;240979;-74
2022/03/29 09:43:26;;;;;;;37.25;19.00;;;10.30;99.90;;;;;;4975675;28;20054;-74
2022/03/29 09:45:58;;;;;;;31.17;19.30;;;10.30;99.90;;;;;;4924361;28;200348;-76
2022/03/29 09:48:32;;;;;;;34.13;19.05;;;10.40;99.90;;;;;;4965462;28;20055;-74
2022/03/29 09:51:15;;;;;;;33.75;18.83;;;10.60;99.90;;;;;;4946969;28;35215;-74
2022/03/29 09:53:53;;;;;;;34.08;17.88;;;10.60;99.90;;;;;;4982506;28;20060;-75
2022/03/29 09:56:24;;;;;;;31.60;18.58;;;10.70;99.90;;;;;;4926615;28;20042;-75
2022/03/29 09:59:14;;;;;;;34.30;19.23;;;10.80;99.90;;;;;;4948600;28;256345;-76
2022/03/29 10:01:47;;;;;;;32.92;18.65;;;11.10;99.90;;;;;;4950827;28;20054;-74
2022/03/29 10:04:16;;;;;;;30.65;17.70;;;11.10;99.90;;;;;;4959004;28;122637;-74
2022/03/29 10:06:44;;;;;;;34.55;18.17;;;11.20;99.90;;;;;;4944780;28;20037;-74
2022/03/29 10:09:29;;;;;;;34.70;18.95;;;11.40;99.90;;;;;;4980337;28;259503;-75
2022/03/29 10:12:04;;;;;;;31.05;17.33;;;11.70;99.90;;;;;;4945195;28;20042;-74
2022/03/29 10:14:36;;;;;;;29.60;16.75;;;11.90;99.90;;;;;;4927262;28;249515;-74
2022/03/29 10:17:02;;;;;;;36.38;17.45;;;11.90;99.90;;;;;;4962459;28;20527;-74
2022/03/29 10:19:29;;;;;;;31.95;16.77;;;11.80;99.90;;;;;;4927619;28;200728;-74
2022/03/29 10:21:57;;;;;;;31.52;17.10;;;11.90;99.90;;;;;;4966069;28;20051;-75
2022/03/29 10:24:23;;;;;;;33.08;17.65;;;12.10;99.90;;;;;;4932329;28;152282;-74
2022/03/29 10:26:52;;;;;;;32.55;17.60;;;12.20;99.90;;;;;;4963666;28;20077;-75
2022/03/29 10:29:19;;;;;;;32.40;17.92;;;12.20;99.90;;;;;;4955009;28;27546;-75
2022/03/29 10:32:02;;;;;;;32.22;17.38;;;12.10;99.90;;;;;;4950713;28;20038;-74
2022/03/29 10:34:37;;;;;;;37.45;18.13;;;12.30;99.90;;;;;;4954807;28;23322;-74
2022/03/29 10:37:14;;;;;;;34.25;18.35;;;12.80;99.90;;;;;;4981309;28;20060;-74
2022/03/29 10:39:46;;;;;;;30.20;17.27;;;13.40;99.90;;;;;;4944733;28;77060;-74
2022/03/29 10:42:38;;;;;;;32.47;17.05;;;13.70;99.90;;;;;;4994290;28;20038;-75
2022/03/29 10:45:24;;;;;;;32.97;17.05;;;14.00;99.90;;;;;;4942274;28;227285;-75
2022/03/29 10:47:53;;;;;;;29.13;15.73;;;14.40;99.90;;;;;;4981621;28;20050;-74
2022/03/29 10:50:20;;;;;;;32.25;15.68;;;14.60;99.80;;;;;;4941073;28;31062;-74
2022/03/29 10:52:48;;;;;;;35.55;16.08;;;14.60;98.20;;;;;;4975160;28;20042;-74
2022/03/29 10:55:29;;;;;;;32.53;16.60;;;14.60;98.00;;;;;;4938408;28;224856;-74
2022/03/29 10:58:13;;;;;;;28.13;15.35;;;14.70;98.80;;;;;;4974164;28;20051;-74
2022/03/29 11:00:43;;;;;;;29.77;14.80;;;15.30;97.00;;;;;;4940995;28;185594;-74
2022/03/29 11:03:15;;;;;;;26.13;14.40;;;15.30;94.40;;;;;;4987472;28;20062;-74
2022/03/29 11:06:02;;;;;;;25.17;13.90;;;15.30;96.50;;;;;;4929442;28;271036;-75
2022/03/29 11:08:30;;;;;;;26.50;13.68;;;15.30;96.00;;;;;;4985181;28;20054;-74
2022/03/29 11:11:00;;;;;;;26.52;13.07;;;15.00;95.10;;;;;;4933450;28;197179;-74
2022/03/29 11:13:38;;;;;;;27.60;14.20;;;14.70;95.80;;;;;;4983603;28;20047;-74
2022/03/29 11:16:25;;;;;;;29.08;14.32;;;14.30;95.10;;;;;;4935686;28;98825;-74
2022/03/29 11:18:52;;;;;;;26.42;12.43;;;14.30;95.50;;;;;;4961474;28;272660;-74
2022/03/29 11:21:36;;;;;;;24.38;12.80;;;15.00;96.10;;;;;;4936236;28;20038;-74
2022/03/29 11:24:05;;;;;;;29.92;12.90;;;15.80;93.90;;;;;;4966408;28;274800;-74
2022/03/29 11:26:33;;;;;;;24.88;12.07;;;16.00;91.20;;;;;;4943777;28;20602;-74
2022/03/29 11:29:00;;;;;;;24.23;10.88;;;16.50;93.10;;;;;;4970857;28;256888;-74
2022/03/29 11:31:35;;;;;;;25.20;11.75;;;17.40;93.10;;;;;;4973709;28;20034;-74
2022/03/29 11:34:02;;;;;;;22.13;10.75;;;18.00;85.80;;;;;;4965941;28;266605;-74
2022/03/29 11:36:28;;;;;;;23.30;10.90;;;18.30;85.90;;;;;;4945989;28;20034;-74
2022/03/29 11:38:54;;;;;;;27.73;11.18;;;18.30;77.00;;;;;;4998978;28;259000;-74
2022/03/29 11:41:28;;;;;;;26.45;10.68;;;18.40;75.30;;;;;;4936999;28;20050;-74
2022/03/29 11:43:56;;;;;;;24.23;10.52;;;18.20;71.30;;;;;;5000586;28;274318;-74
2022/03/29 11:46:22;;;;;;;23.48;10.93;;;18.10;75.00;;;;;;4938888;28;20046;-74
2022/03/29 11:48:50;;;;;;;24.40;10.45;;;17.20;67.90;;;;;;4969672;28;263891;-74
2022/03/29 11:51:16;;;;;;;21.50;10.40;;;16.00;66.50;;;;;;4926498;28;20546;-74
2022/03/29 11:53:43;;;;;;;25.30;10.45;;;15.30;71.50;;;;;;4981429;28;20144;-75
2022/03/29 11:56:10;;;;;;;28.17;10.15;;;15.20;74.20;;;;;;4949230;28;280567;-74
2022/03/29 11:58:48;;;;;;;27.70;10.90;;;15.30;76.60;;;;;;4980107;28;20057;-74
2022/03/29 12:01:28;;;;;;;22.50;9.95;;;15.70;75.70;;;;;;4924060;28;20042;-75
2022/03/29 12:04:03;;;;;;;22.92;10.57;;;16.10;74.70;;;;;;4952901;28;258412;-75
2022/03/29 12:06:32;;;;;;;27.95;10.40;;;16.90;75.20;;;;;;4950589;28;20042;-75
2022/03/29 12:09:02;;;;;;;27.45;10.55;;;17.80;74.10;;;;;;5000419;28;256239;-75
2022/03/29 12:11:37;;;;;;;24.75;10.27;;;18.70;72.20;;;;;;4948003;28;20072;-75
2022/03/29 12:14:15;;;;;;;26.10;10.73;;;18.80;69.40;;;;;;4952105;28;266557;-75
2022/03/29 12:16:42;;;;;;;25.60;10.68;;;17.30;64.20;;;;;;4964645;28;20046;-74
2022/03/29 12:19:11;;;;;;;27.27;10.52;;;16.00;66.90;;;;;;4968669;28;269703;-74
2022/03/29 12:21:38;;;;;;;21.60;9.82;;;15.90;70.20;;;;;;4949426;28;20042;-74
2022/03/29 12:24:07;;;;;;;25.52;10.32;;;16.20;70.10;;;;;;4968391;28;249692;-74
2022/03/29 12:26:48;;;;;;;23.42;10.25;;;16.10;69.90;;;;;;4943140;28;20049;-74
2022/03/29 12:29:18;;;;;;;25.80;10.15;;;16.70;69.40;;;;;;4970635;28;268077;-74
2022/03/29 12:31:44;;;;;;;23.05;10.05;;;17.00;68.10;;;;;;4949768;28;20039;-73
2022/03/29 12:34:12;;;;;;;21.20;9.65;;;16.60;67.60;;;;;;4949042;28;259331;-74
2022/03/29 12:36:49;;;;;;;21.63;9.32;;;16.90;68.50;;;;;;4949335;28;20050;-74
2022/03/29 12:39:16;;;;;;;23.00;8.85;;;17.20;66.30;;;;;;4952988;28;139727;-75
2022/03/29 12:41:53;;;;;;;22.27;8.48;;;17.30;68.00;;;;;;4953044;28;20034;-74
2022/03/29 12:44:37;;;;;;;24.58;8.93;;;17.90;67.10;;;;;;4957459;28;261042;-74
2022/03/29 12:47:06;;;;;;;19.33;8.70;;;18.70;65.90;;;;;;4956177;28;20050;-74